createdAt,value
2022-09-23T00:01:08.484Z,100752.66
2022-09-23T00:03:37.302Z,100744.78
2022-09-23T00:06:08.119Z,100741.53
2022-09-23T00:08:36.396Z,100746.19
2022-09-23T00:11:06.532Z,100748.94
2022-09-23T00:13:34.765Z,100752.91
2022-09-23T00:16:05.806Z,100753.47
2022-09-23T00:18:34.144Z,100750.97
2022-09-23T00:21:04.162Z,100747.47
2022-09-23T00:23:32.541Z,100748.41
2022-09-23T00:26:02.430Z,100748.41
2022-09-23T00:28:30.588Z,100747.81
2022-09-23T00:30:58.934Z,100736.66
2022-09-23T00:33:29.906Z,100737.13
2022-09-23T00:36:00.331Z,100733.75
2022-09-23T00:38:29.047Z,100735.66
2022-09-23T00:40:57.318Z,100740.38
2022-09-23T00:43:38.975Z,100739.88
2022-09-23T00:46:08.712Z,100744.41
2022-09-23T00:48:42.955Z,100739.13
2022-09-23T00:51:14.103Z,100743.66
2022-09-23T00:53:42.961Z,100746.97
2022-09-23T00:56:12.469Z,100741.19
2022-09-23T00:58:42.397Z,100744.16
2022-09-23T01:01:11.135Z,100744.66
2022-09-23T01:03:42.155Z,100745.41
2022-09-23T01:06:11.337Z,100743.59
2022-09-23T01:08:40.491Z,100731.81
2022-09-23T01:11:19.024Z,100734.69
2022-09-23T01:13:54.693Z,100732.28
2022-09-23T01:16:28.270Z,100733.53
2022-09-23T01:19:05.682Z,100732.19
2022-09-23T01:21:42.145Z,100726.28
2022-09-23T01:24:47.075Z,100731.34
2022-09-23T01:27:29.220Z,100733.22
2022-09-23T01:30:11.183Z,100738.88
2022-09-23T01:32:57.777Z,100726.47
2022-09-23T01:35:30.537Z,100727.94
2022-09-23T01:38:04.829Z,100730.34
2022-09-23T01:40:42.750Z,100733.59
2022-09-23T01:43:13.767Z,100735.81
2022-09-23T01:45:45.792Z,100733.50
2022-09-23T01:48:19.584Z,100727.53
2022-09-23T01:50:58.411Z,100721.81
2022-09-23T01:53:33.475Z,100722.94
2022-09-23T01:56:05.214Z,100726.75
2022-09-23T01:58:38.544Z,100729.22
2022-09-23T02:01:09.101Z,100732.81
2022-09-23T02:03:43.931Z,100721.88
2022-09-23T02:06:17.459Z,100728.31
2022-09-23T02:08:48.952Z,100731.59
2022-09-23T02:11:18.255Z,100728.53
2022-09-23T02:13:50.356Z,100729.03
2022-09-23T02:16:25.648Z,100722.22
2022-09-23T02:18:58.991Z,100723.63
2022-09-23T02:21:30.904Z,100725.16
2022-09-23T02:24:05.793Z,100731.38
2022-09-23T02:26:37.432Z,100723.47
2022-09-23T02:29:12.365Z,100727.78
2022-09-23T02:31:45.585Z,100716.38
2022-09-23T02:34:23.455Z,100723.47
2022-09-23T02:37:02.374Z,100725.66
2022-09-23T02:39:37.159Z,100728.16
2022-09-23T02:42:08.246Z,100722.28
2022-09-23T02:44:37.165Z,100727.03
2022-09-23T02:47:06.015Z,100720.91
2022-09-23T02:49:36.679Z,100726.19
2022-09-23T02:52:07.833Z,100727.03
2022-09-23T02:54:36.652Z,100729.13
2022-09-23T02:57:07.220Z,100732.59
2022-09-23T02:59:37.123Z,100726.50
2022-09-23T03:02:21.921Z,100730.69
2022-09-23T03:04:59.164Z,100729.75
2022-09-23T03:07:33.279Z,100723.00
2022-09-23T03:10:09.776Z,100721.78
2022-09-23T03:12:41.238Z,100732.31
2022-09-23T03:15:20.174Z,100730.41
2022-09-23T03:17:53.324Z,100728.88
2022-09-23T03:20:27.826Z,100721.94
2022-09-23T03:23:00.962Z,100723.50
2022-09-23T03:25:33.341Z,100729.47
2022-09-23T03:28:03.051Z,100720.97
2022-09-23T03:30:35.621Z,100723.00
2022-09-23T03:33:06.155Z,100730.28
2022-09-23T03:35:59.702Z,100722.59
2022-09-23T03:38:34.197Z,100718.06
2022-09-23T03:41:05.259Z,100716.06
2022-09-23T03:43:38.706Z,100716.28
2022-09-23T03:46:08.955Z,100714.81
2022-09-23T03:48:37.743Z,100713.34
2022-09-23T03:51:16.603Z,100710.38
2022-09-23T03:53:45.314Z,100714.28
2022-09-23T03:56:14.061Z,100718.09
2022-09-23T03:58:42.469Z,100715.69
2022-09-23T04:01:11.349Z,100718.09
2022-09-23T04:03:40.185Z,100713.03
2022-09-23T04:06:10.590Z,100713.56
2022-09-23T04:08:40.084Z,100710.69
2022-09-23T04:11:09.785Z,100715.34
2022-09-23T04:13:38.221Z,100717.22
2022-09-23T04:16:07.462Z,100717.13
2022-09-23T04:18:36.459Z,100713.56
2022-09-23T04:21:05.623Z,100720.72
2022-09-23T04:23:35.872Z,100716.28
2022-09-23T04:26:06.389Z,100721.44
2022-09-23T04:28:35.545Z,100723.56
2022-09-23T04:31:05.582Z,100722.28
2022-09-23T04:33:34.570Z,100721.66
2022-09-23T04:36:03.482Z,100730.22
2022-09-23T04:38:32.309Z,100738.31
2022-09-23T04:41:03.039Z,100740.75
2022-09-23T04:43:31.903Z,100736.13
2022-09-23T04:46:01.643Z,100730.22
2022-09-23T04:48:31.898Z,100723.41
2022-09-23T04:51:04.755Z,100724.00
2022-09-23T04:53:33.981Z,100726.47
2022-09-23T04:56:05.574Z,100717.97
2022-09-23T04:58:37.546Z,100725.16
2022-09-23T05:01:10.920Z,100720.00
2022-09-23T05:03:39.954Z,100718.81
2022-09-23T05:06:09.082Z,100722.66
2022-09-23T05:08:38.079Z,100720.59
2022-09-23T05:11:09.117Z,100725.03
2022-09-23T05:13:37.652Z,100724.91
2022-09-23T05:16:08.436Z,100717.22
2022-09-23T05:18:39.183Z,100723.53
2022-09-23T05:21:08.414Z,100718.00
2022-09-23T05:23:37.886Z,100719.22
2022-09-23T05:26:09.810Z,100717.28
2022-09-23T05:28:39.487Z,100724.72
2022-09-23T05:31:10.261Z,100723.47
2022-09-23T05:33:39.460Z,100720.47
2022-09-23T05:36:09.012Z,100722.19
2022-09-23T05:38:38.161Z,100720.22
2022-09-23T05:41:11.080Z,100724.94
2022-09-23T05:43:41.979Z,100731.41
2022-09-23T05:46:14.244Z,100734.78
2022-09-23T05:48:45.997Z,100736.53
2022-09-23T05:51:16.463Z,100727.66
2022-09-23T05:53:45.615Z,100732.34
2022-09-23T05:56:16.796Z,100730.47
2022-09-23T05:58:45.522Z,100730.38
2022-09-23T06:01:18.064Z,100737.09
2022-09-23T06:03:47.888Z,100736.47
2022-09-23T06:06:18.187Z,100740.06
2022-09-23T06:08:47.312Z,100731.06
2022-09-23T06:11:17.513Z,100732.84
2022-09-23T06:13:45.874Z,100724.97
2022-09-23T06:16:16.209Z,100731.75
2022-09-23T06:18:45.321Z,100730.19
2022-09-23T06:21:15.079Z,100728.81
2022-09-23T06:23:44.539Z,100732.47
2022-09-23T06:26:14.902Z,100729.84
2022-09-23T06:28:46.189Z,100725.47
2022-09-23T06:31:16.500Z,100728.38
2022-09-23T06:33:45.525Z,100723.91
2022-09-23T06:36:24.755Z,100722.81
2022-09-23T06:39:03.562Z,100718.28
2022-09-23T06:41:32.757Z,100723.41
2022-09-23T06:44:03.476Z,100726.97
2022-09-23T06:46:32.554Z,100718.06
2022-09-23T06:49:02.279Z,100714.06
2022-09-23T06:51:31.091Z,100705.50
2022-09-23T06:53:59.957Z,100704.19
2022-09-23T06:56:28.838Z,100699.94
2022-09-23T06:58:57.527Z,100701.66
2022-09-23T07:01:27.828Z,100700.94
2022-09-23T07:03:56.688Z,100707.47
2022-09-23T07:06:25.485Z,100701.56
2022-09-23T07:08:54.183Z,100705.22
2022-09-23T07:11:23.183Z,100706.16
2022-09-23T07:13:54.586Z,100708.75
2022-09-23T07:16:23.512Z,100711.22
2022-09-23T07:18:53.955Z,100713.19
2022-09-23T07:21:22.588Z,100713.13
2022-09-23T07:23:52.113Z,100721.75
2022-09-23T07:26:21.615Z,100710.25
2022-09-23T07:28:55.638Z,100715.31
2022-09-23T07:31:37.965Z,100708.50
2022-09-23T07:34:11.848Z,100709.50
2022-09-23T07:36:41.815Z,100702.44
2022-09-23T07:39:11.801Z,100708.19
2022-09-23T07:41:41.912Z,100697.59
2022-09-23T07:44:11.987Z,100699.91
2022-09-23T07:46:40.556Z,100701.97
2022-09-23T07:49:11.526Z,100697.53
2022-09-23T07:51:41.478Z,100693.16
2022-09-23T07:54:13.310Z,100689.91
2022-09-23T07:56:43.567Z,100679.53
2022-09-23T07:59:15.548Z,100694.31
2022-09-23T08:01:46.405Z,100696.63
2022-09-23T08:04:18.969Z,100696.69
2022-09-23T08:06:49.672Z,100699.53
2022-09-23T08:09:20.193Z,100690.53
2022-09-23T08:11:49.607Z,100692.94
2022-09-23T08:14:19.329Z,100692.56
2022-09-23T08:16:48.457Z,100686.34
2022-09-23T08:19:19.023Z,100684.84
2022-09-23T08:21:48.208Z,100689.41
2022-09-23T08:24:19.433Z,100676.59
2022-09-23T08:26:48.998Z,100673.28
2022-09-23T08:29:19.298Z,100675.13
2022-09-23T08:31:47.550Z,100671.03
2022-09-23T08:34:18.844Z,100681.72
2022-09-23T08:36:48.249Z,100666.94
2022-09-23T08:39:19.596Z,100671.28
2022-09-23T08:41:59.083Z,100671.72
2022-09-23T08:44:29.785Z,100659.91
2022-09-23T08:47:04.439Z,100664.28
2022-09-23T08:49:38.818Z,100672.47
2022-09-23T08:52:13.224Z,100664.22
2022-09-23T08:54:42.407Z,100667.28
2022-09-23T08:57:20.848Z,100665.72
2022-09-23T08:59:49.784Z,100659.72
2022-09-23T09:02:20.907Z,100660.22
2022-09-23T09:04:53.817Z,100652.25
2022-09-23T09:07:35.609Z,100650.13
2022-09-23T09:10:08.003Z,100643.69
2022-09-23T09:12:43.282Z,100647.75
2022-09-23T09:15:15.314Z,100643.47
2022-09-23T09:17:50.259Z,100637.66
2022-09-23T09:20:24.441Z,100642.88
2022-09-23T09:22:56.143Z,100643.44
2022-09-23T09:25:33.500Z,100642.94
2022-09-23T09:28:04.939Z,100644.25
2022-09-23T09:30:36.390Z,100639.00
2022-09-23T09:33:06.944Z,100640.03
2022-09-23T09:35:42.204Z,100642.16
2022-09-23T09:38:11.096Z,100645.56
2022-09-23T09:40:46.258Z,100638.72
2022-09-23T09:43:23.708Z,100628.56
2022-09-23T09:46:03.421Z,100630.19
2022-09-23T09:48:39.067Z,100628.81
2022-09-23T09:51:22.273Z,100614.69
2022-09-23T09:53:52.740Z,100617.13
2022-09-23T09:56:26.815Z,100617.09
2022-09-23T09:58:56.963Z,100611.00
2022-09-23T10:01:27.044Z,100608.31
2022-09-23T10:03:59.493Z,100619.28
2022-09-23T10:06:32.697Z,100620.59
2022-09-23T10:09:13.941Z,100606.91
2022-09-23T10:11:43.208Z,100605.59
2022-09-23T10:14:14.984Z,100601.84
2022-09-23T10:16:43.451Z,100598.25
2022-09-23T10:19:23.540Z,100590.94
2022-09-23T10:21:54.713Z,100586.84
2022-09-23T10:24:26.085Z,100579.28
2022-09-23T10:26:58.337Z,100589.94
2022-09-23T10:29:32.073Z,100582.84
2022-09-23T10:32:23.794Z,100572.34
2022-09-23T10:34:55.914Z,100583.41
2022-09-23T10:37:33.777Z,100573.72
2022-09-23T10:40:34.683Z,100564.75
2022-09-23T10:43:42.550Z,100561.34
2022-09-23T10:46:36.516Z,100552.72
2022-09-23T10:49:43.908Z,100551.81
2022-09-23T10:52:28.667Z,100556.63
2022-09-23T10:55:06.602Z,100558.81
2022-09-23T10:57:48.561Z,100555.09
2022-09-23T11:00:23.489Z,100571.34
2022-09-23T11:03:32.394Z,100572.22
2022-09-23T11:06:11.471Z,100564.19
2022-09-23T11:08:52.353Z,100567.44
2022-09-23T11:11:30.456Z,100561.72
2022-09-23T11:14:16.134Z,100563.97
2022-09-23T11:16:55.953Z,100570.00
2022-09-23T11:19:54.003Z,100569.28
2022-09-23T11:22:38.098Z,100576.75
2022-09-23T11:25:23.989Z,100572.13
2022-09-23T11:28:04.019Z,100565.50
2022-09-23T11:30:41.203Z,100562.94
2022-09-23T11:33:27.294Z,100566.66
2022-09-23T11:35:59.338Z,100566.50
2022-09-23T11:38:32.152Z,100564.47
2022-09-23T11:41:05.514Z,100556.72
2022-09-23T11:43:37.176Z,100541.31
2022-09-23T11:46:10.149Z,100550.81
2022-09-23T11:48:42.594Z,100555.53
2022-09-23T11:51:16.194Z,100552.97
2022-09-23T11:53:47.707Z,100554.38
2022-09-23T11:56:33.935Z,100551.84
2022-09-23T11:59:07.848Z,100538.63
2022-09-23T12:01:43.165Z,100531.41
2022-09-23T12:04:21.116Z,100527.63
2022-09-23T12:06:57.070Z,100527.66
2022-09-23T12:09:53.843Z,100528.28
2022-09-23T12:12:26.995Z,100523.53
2022-09-23T12:15:00.807Z,100523.28
2022-09-23T12:18:04.563Z,100529.81
2022-09-23T12:20:44.058Z,100522.22
2022-09-23T12:23:24.815Z,100521.44
2022-09-23T12:25:57.309Z,100517.84
2022-09-23T12:28:29.793Z,100519.00
2022-09-23T12:31:02.367Z,100505.00
2022-09-23T12:33:33.042Z,100505.97
2022-09-23T12:36:05.915Z,100503.88
2022-09-23T12:38:36.747Z,100515.56
2022-09-23T12:41:22.145Z,100512.81
2022-09-23T12:43:56.524Z,100515.47
2022-09-23T12:46:27.572Z,100521.06
2022-09-23T12:49:03.993Z,100514.81
2022-09-23T12:51:34.706Z,100506.78
2022-09-23T12:54:24.984Z,100500.03
2022-09-23T12:57:00.352Z,100502.22
2022-09-23T12:59:32.607Z,100489.75
2022-09-23T13:02:27.387Z,100501.84
2022-09-23T13:05:16.994Z,100500.28
2022-09-23T13:07:47.563Z,100494.09
2022-09-23T13:10:23.990Z,100498.84
2022-09-23T13:12:53.780Z,100492.94
2022-09-23T13:15:30.778Z,100486.25
2022-09-23T13:18:25.153Z,100500.28
2022-09-23T13:20:55.111Z,100495.34
2022-09-23T13:23:25.561Z,100494.50
2022-09-23T13:25:55.938Z,100500.84
2022-09-23T13:28:38.077Z,100491.25
2022-09-23T13:31:14.446Z,100483.41
2022-09-23T13:33:47.153Z,100487.91
2022-09-23T13:36:18.016Z,100482.72
2022-09-23T13:38:48.872Z,100479.22
2022-09-23T13:41:19.956Z,100480.34
2022-09-23T13:43:51.237Z,100476.25
2022-09-23T13:46:23.380Z,100469.38
2022-09-23T13:48:54.810Z,100474.22
2022-09-23T13:51:27.640Z,100471.66
2022-09-23T13:53:58.305Z,100473.38
2022-09-23T13:56:28.735Z,100469.53
2022-09-23T13:59:13.573Z,100470.00
2022-09-23T14:01:43.900Z,100471.53
2022-09-23T14:04:24.890Z,100461.56
2022-09-23T14:06:53.962Z,100460.94
2022-09-23T14:09:25.673Z,100458.84
2022-09-23T14:11:54.926Z,100452.75
2022-09-23T14:14:24.339Z,100451.09
2022-09-23T14:16:54.617Z,100458.00
2022-09-23T14:19:24.921Z,100458.03
2022-09-23T14:21:55.099Z,100452.28
2022-09-23T14:24:25.709Z,100453.34
2022-09-23T14:26:57.175Z,100455.56
2022-09-23T14:29:27.357Z,100445.84
2022-09-23T14:32:00.337Z,100444.34
2022-09-23T14:34:46.932Z,100449.06
2022-09-23T14:37:43.397Z,100438.03
2022-09-23T14:40:16.112Z,100444.63
2022-09-23T14:42:47.760Z,100431.56
2022-09-23T14:45:21.075Z,100437.66
2022-09-23T14:47:52.978Z,100420.94
2022-09-23T14:50:47.454Z,100413.66
2022-09-23T14:53:40.584Z,100424.50
2022-09-23T14:56:13.990Z,100412.94
2022-09-23T14:58:50.964Z,100421.44
2022-09-23T15:01:29.279Z,100422.75
2022-09-23T15:04:00.660Z,100422.97
2022-09-23T15:06:29.546Z,100423.22
2022-09-23T15:08:58.402Z,100424.25
2022-09-23T15:11:29.564Z,100421.66
2022-09-23T15:14:05.418Z,100423.94
2022-09-23T15:16:43.075Z,100412.13
2022-09-23T15:19:19.171Z,100416.19
2022-09-23T15:21:49.663Z,100411.06
2022-09-23T15:24:39.727Z,100414.16
2022-09-23T15:27:21.279Z,100414.03
2022-09-23T15:29:51.945Z,100408.38
2022-09-23T15:32:20.903Z,100412.91
2022-09-23T15:34:52.044Z,100417.06
2022-09-23T15:37:23.266Z,100415.72
2022-09-23T15:39:52.561Z,100413.44
2022-09-23T15:42:21.411Z,100416.03
2022-09-23T15:44:51.117Z,100410.69
2022-09-23T15:47:21.717Z,100418.06
2022-09-23T15:49:51.764Z,100419.50
2022-09-23T15:52:22.386Z,100424.25
2022-09-23T15:54:52.191Z,100416.81
2022-09-23T15:57:21.725Z,100426.03
2022-09-23T15:59:50.523Z,100423.00
2022-09-23T16:02:22.421Z,100427.66
2022-09-23T16:04:52.771Z,100421.31
2022-09-23T16:07:32.897Z,100411.81
2022-09-23T16:10:02.517Z,100411.13
2022-09-23T16:12:31.503Z,100416.75
2022-09-23T16:15:00.338Z,100420.19
2022-09-23T16:17:29.358Z,100424.63
2022-09-23T16:19:59.544Z,100426.56
2022-09-23T16:22:28.062Z,100430.47
2022-09-23T16:24:56.824Z,100425.88
2022-09-23T16:27:26.227Z,100428.81
2022-09-23T16:29:55.309Z,100427.41
2022-09-23T16:32:24.404Z,100430.16
2022-09-23T16:34:52.896Z,100426.75
2022-09-23T16:37:23.841Z,100429.72
2022-09-23T16:39:54.088Z,100425.88
2022-09-23T16:42:23.343Z,100422.53
2022-09-23T16:44:52.208Z,100420.56
2022-09-23T16:47:22.649Z,100421.84
2022-09-23T16:49:51.141Z,100420.31
2022-09-23T16:52:19.936Z,100420.63
2022-09-23T16:54:50.690Z,100420.72
2022-09-23T16:57:19.904Z,100417.97
2022-09-23T17:00:06.378Z,100416.25
2022-09-23T17:02:52.792Z,100418.28
2022-09-23T17:05:21.573Z,100414.03
2022-09-23T17:07:50.118Z,100410.63
2022-09-23T17:10:21.529Z,100413.50
2022-09-23T17:12:54.632Z,100415.06
2022-09-23T17:15:23.674Z,100415.94
2022-09-23T17:17:52.514Z,100416.50
2022-09-23T17:20:21.365Z,100413.44
2022-09-23T17:22:49.998Z,100415.69
2022-09-23T17:25:20.573Z,100415.69
2022-09-23T17:27:49.624Z,100413.06
2022-09-23T17:30:18.673Z,100412.41
2022-09-23T17:32:47.426Z,100416.59
2022-09-23T17:35:16.501Z,100424.63
2022-09-23T17:37:46.903Z,100418.22
2022-09-23T17:40:19.715Z,100423.22
2022-09-23T17:42:48.697Z,100426.41
2022-09-23T17:45:17.718Z,100427.66
2022-09-23T17:47:54.988Z,100426.53
2022-09-23T17:50:23.815Z,100427.75
2022-09-23T17:52:52.298Z,100423.00
2022-09-23T17:55:22.525Z,100425.06
2022-09-23T17:57:52.887Z,100426.00
2022-09-23T18:00:21.757Z,100425.84
2022-09-23T18:02:52.688Z,100429.34
2022-09-23T18:05:22.024Z,100419.41
2022-09-23T18:07:50.716Z,100425.53
2022-09-23T18:10:19.530Z,100424.41
2022-09-23T18:12:49.875Z,100418.94
2022-09-23T18:15:20.144Z,100426.22
2022-09-23T18:17:49.042Z,100425.53
2022-09-23T18:20:18.192Z,100426.47
2022-09-23T18:22:46.699Z,100424.50
2022-09-23T18:25:37.579Z,100433.28
2022-09-23T18:28:06.352Z,100422.38
2022-09-23T18:30:39.513Z,100424.06
2022-09-23T18:33:08.434Z,100426.53
2022-09-23T18:35:37.397Z,100424.88
2022-09-23T18:38:06.467Z,100425.84
2022-09-23T18:40:35.102Z,100427.09
2022-09-23T18:43:05.418Z,100431.41
2022-09-23T18:45:34.360Z,100438.81
2022-09-23T18:48:20.963Z,100439.28
2022-09-23T18:50:49.742Z,100439.28
2022-09-23T18:53:19.859Z,100438.13
2022-09-23T18:55:48.421Z,100441.41
2022-09-23T18:58:18.888Z,100441.25
2022-09-23T19:00:50.303Z,100446.56
2022-09-23T19:03:19.115Z,100440.63
2022-09-23T19:05:50.075Z,100443.91
2022-09-23T19:08:19.977Z,100437.63
2022-09-23T19:10:56.913Z,100439.41
2022-09-23T19:13:28.146Z,100445.56
2022-09-23T19:15:57.132Z,100438.59
2022-09-23T19:18:26.167Z,100443.91
2022-09-23T19:21:02.556Z,100439.78
2022-09-23T19:23:36.342Z,100442.44
2022-09-23T19:26:06.842Z,100437.28
2022-09-23T19:28:37.033Z,100443.69
2022-09-23T19:31:09.907Z,100442.69
2022-09-23T19:33:39.308Z,100442.44
2022-09-23T19:36:09.632Z,100444.38
2022-09-23T19:38:38.870Z,100446.63
2022-09-23T19:41:08.071Z,100449.84
2022-09-23T19:43:39.239Z,100450.44
2022-09-23T19:46:08.434Z,100446.56
2022-09-23T19:48:37.352Z,100448.38
2022-09-23T19:51:06.805Z,100448.50
2022-09-23T19:53:35.627Z,100442.00
2022-09-23T19:56:05.199Z,100453.28
2022-09-23T19:58:35.579Z,100446.06
2022-09-23T20:01:09.545Z,100448.47
2022-09-23T20:03:39.042Z,100440.94
2022-09-23T20:06:07.989Z,100447.66
2022-09-23T20:08:38.414Z,100443.47
2022-09-23T20:11:12.239Z,100449.06
2022-09-23T20:13:41.848Z,100445.72
2022-09-23T20:16:12.581Z,100440.56
2022-09-23T20:18:41.959Z,100442.66
2022-09-23T20:21:13.661Z,100439.59
2022-09-23T20:23:42.667Z,100441.56
2022-09-23T20:26:29.369Z,100436.69
2022-09-23T20:29:01.570Z,100440.59
2022-09-23T20:31:32.249Z,100442.38
2022-09-23T20:34:05.742Z,100438.50
2022-09-23T20:36:36.358Z,100434.59
2022-09-23T20:39:07.048Z,100435.16
2022-09-23T20:41:37.979Z,100426.50
2022-09-23T20:44:10.489Z,100426.63
2022-09-23T20:46:44.143Z,100428.69
2022-09-23T20:49:17.614Z,100431.53
2022-09-23T20:51:48.404Z,100425.81
2022-09-23T20:54:19.124Z,100421.22
2022-09-23T20:56:49.211Z,100415.66
2022-09-23T20:59:18.290Z,100432.13
2022-09-23T21:01:48.267Z,100425.28
2022-09-23T21:04:17.406Z,100430.47
2022-09-23T21:06:46.916Z,100431.44
2022-09-23T21:09:15.710Z,100435.03
2022-09-23T21:11:44.523Z,100428.34
2022-09-23T21:14:13.578Z,100433.38
2022-09-23T21:16:42.090Z,100426.59
2022-09-23T21:19:12.207Z,100439.53
2022-09-23T21:21:40.939Z,100432.84
2022-09-23T21:24:43.759Z,100441.88
2022-09-23T21:26:58.648Z,100448.56
2022-09-23T21:29:27.850Z,100447.00
2022-09-23T21:31:56.207Z,100446.44
2022-09-23T21:34:28.365Z,100445.81
2022-09-23T21:36:57.633Z,100442.16
2022-09-23T21:39:26.468Z,100445.84
2022-09-23T21:41:55.246Z,100443.63
2022-09-23T21:44:23.962Z,100443.63
2022-09-23T21:46:52.495Z,100442.19
2022-09-23T21:49:21.732Z,100445.03
2022-09-23T21:51:55.343Z,100444.38
2022-09-23T21:54:24.180Z,100448.00
2022-09-23T21:56:52.930Z,100451.75
2022-09-23T21:59:21.693Z,100449.47
2022-09-23T22:01:53.946Z,100450.25
2022-09-23T22:04:23.053Z,100451.13
2022-09-23T22:06:54.114Z,100451.38
2022-09-23T22:09:22.881Z,100453.69
2022-09-23T22:12:08.940Z,100455.16
2022-09-23T22:14:39.108Z,100450.28
2022-09-23T22:17:10.963Z,100452.31
2022-09-23T22:19:45.794Z,100455.91
2022-09-23T22:22:18.991Z,100450.31
2022-09-23T22:24:48.603Z,100441.94
2022-09-23T22:27:19.227Z,100441.97
2022-09-23T22:30:05.830Z,100444.25
2022-09-23T22:32:46.273Z,100438.66
2022-09-23T22:35:16.753Z,100433.38
2022-09-23T22:37:47.459Z,100424.63
2022-09-23T22:40:16.955Z,100420.22
2022-09-23T22:42:46.012Z,100420.69
2022-09-23T22:45:15.152Z,100428.28
2022-09-23T22:47:45.556Z,100430.91
2022-09-23T22:50:15.418Z,100424.06
2022-09-23T22:52:44.264Z,100431.72
2022-09-23T22:55:14.515Z,100428.41
2022-09-23T22:57:43.381Z,100420.84
2022-09-23T23:00:13.701Z,100415.25
2022-09-23T23:02:42.695Z,100418.94
2022-09-23T23:05:11.882Z,100417.41
2022-09-23T23:07:40.658Z,100411.19
2022-09-23T23:10:10.431Z,100416.34
2022-09-23T23:12:41.322Z,100421.13
2022-09-23T23:15:12.871Z,100407.34
2022-09-23T23:17:43.777Z,100406.41
2022-09-23T23:20:12.902Z,100400.66
2022-09-23T23:22:42.640Z,100400.19
2022-09-23T23:25:11.532Z,100403.84
2022-09-23T23:27:41.718Z,100397.28
2022-09-23T23:30:11.256Z,100399.19
2022-09-23T23:32:40.066Z,100402.06
2022-09-23T23:35:09.750Z,100399.31
2022-09-23T23:37:38.485Z,100400.16
2022-09-23T23:40:08.208Z,100400.03
2022-09-23T23:42:37.092Z,100395.13
2022-09-23T23:45:09.321Z,100389.25
2022-09-23T23:47:38.799Z,100399.16
2022-09-23T23:50:09.919Z,100397.50
2022-09-23T23:52:38.602Z,100403.59
2022-09-23T23:55:07.733Z,100400.13
2022-09-23T23:57:36.630Z,100402.75
